sensor_id;sensor_type;location;lat;lon;timestamp;P1;durP1;ratioP1;P2;durP2;ratioP2
10900;SDS011;5503;53.208;10.392;2023-05-07T00:01:48;7.45;;;3.35;;
10900;SDS011;5503;53.208;10.392;2023-05-07T00:04:15;7.07;;;3.80;;
10900;SDS011;5503;53.208;10.392;2023-05-07T00:06:42;6.05;;;3.20;;
10900;SDS011;5503;53.208;10.392;2023-05-07T00:09:10;6.97;;;3.90;;
10900;SDS011;5503;53.208;10.392;2023-05-07T00:11:39;6.20;;;3.33;;
10900;SDS011;5503;53.208;10.392;2023-05-07T00:14:06;5.82;;;3.65;;
10900;SDS011;5503;53.208;10.392;2023-05-07T00:16:33;8.30;;;3.92;;
10900;SDS011;5503;53.208;10.392;2023-05-07T00:19:00;7.75;;;3.42;;
10900;SDS011;5503;53.208;10.392;2023-05-07T00:21:28;6.35;;;3.60;;
10900;SDS011;5503;53.208;10.392;2023-05-07T00:23:55;7.03;;;3.65;;
10900;SDS011;5503;53.208;10.392;2023-05-07T00:26:22;5.72;;;3.38;;
10900;SDS011;5503;53.208;10.392;2023-05-07T00:28:51;8.18;;;3.65;;
10900;SDS011;5503;53.208;10.392;2023-05-07T00:31:18;7.80;;;3.83;;
10900;SDS011;5503;53.208;10.392;2023-05-07T00:33:45;7.53;;;3.63;;
10900;SDS011;5503;53.208;10.392;2023-05-07T00:36:13;5.13;;;3.33;;
10900;SDS011;5503;53.208;10.392;2023-05-07T00:38:40;6.72;;;3.85;;
10900;SDS011;5503;53.208;10.392;2023-05-07T00:41:07;5.75;;;3.10;;
10900;SDS011;5503;53.208;10.392;2023-05-07T00:43:34;5.53;;;2.38;;
10900;SDS011;5503;53.208;10.392;2023-05-07T00:46:03;6.25;;;3.30;;
10900;SDS011;5503;53.208;10.392;2023-05-07T00:48:30;6.28;;;3.00;;
10900;SDS011;5503;53.208;10.392;2023-05-07T00:50:58;5.90;;;3.13;;
10900;SDS011;5503;53.208;10.392;2023-05-07T00:53:25;7.15;;;3.38;;
10900;SDS011;5503;53.208;10.392;2023-05-07T00:55:53;7.35;;;3.20;;
10900;SDS011;5503;53.208;10.392;2023-05-07T00:58:20;5.32;;;2.83;;
10900;SDS011;5503;53.208;10.392;2023-05-07T01:00:48;6.25;;;3.22;;
10900;SDS011;5503;53.208;10.392;2023-05-07T01:03:16;6.20;;;3.65;;
10900;SDS011;5503;53.208;10.392;2023-05-07T01:05:44;6.13;;;3.92;;
10900;SDS011;5503;53.208;10.392;2023-05-07T01:08:12;7.22;;;3.22;;
10900;SDS011;5503;53.208;10.392;2023-05-07T01:10:39;5.78;;;3.13;;
10900;SDS011;5503;53.208;10.392;2023-05-07T01:13:08;6.15;;;3.72;;
10900;SDS011;5503;53.208;10.392;2023-05-07T01:15:36;6.18;;;3.67;;
10900;SDS011;5503;53.208;10.392;2023-05-07T01:18:05;6.90;;;3.28;;
10900;SDS011;5503;53.208;10.392;2023-05-07T01:20:34;6.47;;;3.90;;
10900;SDS011;5503;53.208;10.392;2023-05-07T01:23:03;8.20;;;3.72;;
10900;SDS011;5503;53.208;10.392;2023-05-07T01:25:30;5.72;;;3.70;;
10900;SDS011;5503;53.208;10.392;2023-05-07T01:27:57;5.57;;;3.58;;
10900;SDS011;5503;53.208;10.392;2023-05-07T01:30:26;6.00;;;3.15;;
10900;SDS011;5503;53.208;10.392;2023-05-07T01:32:56;6.85;;;3.70;;
10900;SDS011;5503;53.208;10.392;2023-05-07T01:35:26;6.05;;;3.47;;
10900;SDS011;5503;53.208;10.392;2023-05-07T01:37:54;5.97;;;2.45;;
10900;SDS011;5503;53.208;10.392;2023-05-07T01:40:26;7.10;;;3.80;;
10900;SDS011;5503;53.208;10.392;2023-05-07T01:42:56;6.32;;;3.65;;
10900;SDS011;5503;53.208;10.392;2023-05-07T01:45:23;6.45;;;3.80;;
10900;SDS011;5503;53.208;10.392;2023-05-07T01:47:51;4.63;;;2.63;;
10900;SDS011;5503;53.208;10.392;2023-05-07T01:50:19;6.55;;;3.58;;
10900;SDS011;5503;53.208;10.392;2023-05-07T01:52:46;5.03;;;3.10;;
10900;SDS011;5503;53.208;10.392;2023-05-07T01:55:14;6.78;;;3.80;;
10900;SDS011;5503;53.208;10.392;2023-05-07T01:57:42;6.75;;;3.38;;
10900;SDS011;5503;53.208;10.392;2023-05-07T02:00:10;6.60;;;3.50;;
10900;SDS011;5503;53.208;10.392;2023-05-07T02:02:37;6.60;;;3.42;;
10900;SDS011;5503;53.208;10.392;2023-05-07T02:05:05;7.13;;;4.05;;
10900;SDS011;5503;53.208;10.392;2023-05-07T02:07:32;7.13;;;3.88;;
10900;SDS011;5503;53.208;10.392;2023-05-07T02:10:00;7.03;;;4.03;;
10900;SDS011;5503;53.208;10.392;2023-05-07T02:12:28;7.60;;;3.65;;
10900;SDS011;5503;53.208;10.392;2023-05-07T02:14:56;6.90;;;3.97;;
10900;SDS011;5503;53.208;10.392;2023-05-07T02:17:23;7.82;;;4.50;;
10900;SDS011;5503;53.208;10.392;2023-05-07T02:19:51;7.25;;;3.97;;
10900;SDS011;5503;53.208;10.392;2023-05-07T02:22:18;5.70;;;3.35;;
10900;SDS011;5503;53.208;10.392;2023-05-07T02:24:45;8.30;;;3.53;;
10900;SDS011;5503;53.208;10.392;2023-05-07T02:27:12;8.63;;;3.40;;
10900;SDS011;5503;53.208;10.392;2023-05-07T02:29:39;8.38;;;3.67;;
10900;SDS011;5503;53.208;10.392;2023-05-07T02:32:08;7.82;;;4.18;;
10900;SDS011;5503;53.208;10.392;2023-05-07T02:34:35;6.57;;;3.53;;
10900;SDS011;5503;53.208;10.392;2023-05-07T02:37:02;9.25;;;4.47;;
10900;SDS011;5503;53.208;10.392;2023-05-07T02:39:29;8.93;;;3.45;;
10900;SDS011;5503;53.208;10.392;2023-05-07T02:41:56;9.32;;;4.40;;
10900;SDS011;5503;53.208;10.392;2023-05-07T02:44:24;6.07;;;3.22;;
10900;SDS011;5503;53.208;10.392;2023-05-07T02:46:51;6.05;;;3.55;;
10900;SDS011;5503;53.208;10.392;2023-05-07T02:49:19;7.15;;;3.83;;
10900;SDS011;5503;53.208;10.392;2023-05-07T02:51:46;6.80;;;3.42;;
10900;SDS011;5503;53.208;10.392;2023-05-07T02:54:14;6.45;;;4.03;;
10900;SDS011;5503;53.208;10.392;2023-05-07T02:56:41;6.10;;;3.58;;
10900;SDS011;5503;53.208;10.392;2023-05-07T02:59:08;9.55;;;5.07;;
10900;SDS011;5503;53.208;10.392;2023-05-07T03:01:35;7.30;;;4.15;;
10900;SDS011;5503;53.208;10.392;2023-05-07T03:04:02;8.82;;;4.28;;
10900;SDS011;5503;53.208;10.392;2023-05-07T03:06:31;6.88;;;3.72;;
10900;SDS011;5503;53.208;10.392;2023-05-07T03:08:58;6.53;;;3.42;;
10900;SDS011;5503;53.208;10.392;2023-05-07T03:11:25;7.72;;;3.75;;
10900;SDS011;5503;53.208;10.392;2023-05-07T03:13:52;6.80;;;3.65;;
10900;SDS011;5503;53.208;10.392;2023-05-07T03:16:19;8.10;;;4.15;;
10900;SDS011;5503;53.208;10.392;2023-05-07T03:18:46;9.90;;;4.70;;
10900;SDS011;5503;53.208;10.392;2023-05-07T03:21:13;6.63;;;3.55;;
10900;SDS011;5503;53.208;10.392;2023-05-07T03:23:42;7.15;;;4.10;;
10900;SDS011;5503;53.208;10.392;2023-05-07T03:26:09;7.00;;;3.72;;
10900;SDS011;5503;53.208;10.392;2023-05-07T03:28:37;5.88;;;3.72;;
10900;SDS011;5503;53.208;10.392;2023-05-07T03:31:04;7.20;;;3.58;;
10900;SDS011;5503;53.208;10.392;2023-05-07T03:33:32;6.57;;;3.90;;
10900;SDS011;5503;53.208;10.392;2023-05-07T03:36:00;6.03;;;3.67;;
10900;SDS011;5503;53.208;10.392;2023-05-07T03:38:27;7.57;;;3.67;;
10900;SDS011;5503;53.208;10.392;2023-05-07T03:40:56;6.93;;;4.05;;
10900;SDS011;5503;53.208;10.392;2023-05-07T03:43:23;8.57;;;4.43;;
10900;SDS011;5503;53.208;10.392;2023-05-07T03:45:50;6.72;;;3.58;;
10900;SDS011;5503;53.208;10.392;2023-05-07T03:48:17;10.38;;;4.15;;
10900;SDS011;5503;53.208;10.392;2023-05-07T03:50:44;7.15;;;3.67;;
10900;SDS011;5503;53.208;10.392;2023-05-07T03:53:12;7.93;;;3.63;;
10900;SDS011;5503;53.208;10.392;2023-05-07T03:55:40;7.05;;;3.65;;
10900;SDS011;5503;53.208;10.392;2023-05-07T03:58:08;8.43;;;4.25;;
10900;SDS011;5503;53.208;10.392;2023-05-07T04:00:35;7.30;;;3.92;;
10900;SDS011;5503;53.208;10.392;2023-05-07T04:03:03;8.07;;;4.35;;
10900;SDS011;5503;53.208;10.392;2023-05-07T04:05:30;6.97;;;3.92;;
10900;SDS011;5503;53.208;10.392;2023-05-07T04:07:57;6.72;;;3.85;;
10900;SDS011;5503;53.208;10.392;2023-05-07T04:10:24;6.22;;;3.50;;
10900;SDS011;5503;53.208;10.392;2023-05-07T04:12:53;9.20;;;4.05;;
10900;SDS011;5503;53.208;10.392;2023-05-07T04:15:21;7.90;;;4.20;;
10900;SDS011;5503;53.208;10.392;2023-05-07T04:17:48;6.13;;;3.53;;
10900;SDS011;5503;53.208;10.392;2023-05-07T04:20:16;6.30;;;4.03;;
10900;SDS011;5503;53.208;10.392;2023-05-07T04:22:43;5.28;;;3.00;;
10900;SDS011;5503;53.208;10.392;2023-05-07T04:25:11;6.95;;;3.88;;
10900;SDS011;5503;53.208;10.392;2023-05-07T04:27:38;9.95;;;4.32;;
10900;SDS011;5503;53.208;10.392;2023-05-07T04:30:05;4.53;;;2.85;;
10900;SDS011;5503;53.208;10.392;2023-05-07T04:32:34;8.40;;;4.00;;
10900;SDS011;5503;53.208;10.392;2023-05-07T04:35:02;7.55;;;3.95;;
10900;SDS011;5503;53.208;10.392;2023-05-07T04:37:29;8.07;;;4.18;;
10900;SDS011;5503;53.208;10.392;2023-05-07T04:39:58;7.53;;;3.75;;
10900;SDS011;5503;53.208;10.392;2023-05-07T04:42:27;7.50;;;3.58;;
10900;SDS011;5503;53.208;10.392;2023-05-07T04:44:55;5.80;;;3.10;;
10900;SDS011;5503;53.208;10.392;2023-05-07T04:47:22;5.55;;;3.05;;
10900;SDS011;5503;53.208;10.392;2023-05-07T04:49:50;7.78;;;3.53;;
10900;SDS011;5503;53.208;10.392;2023-05-07T04:52:17;7.30;;;3.92;;
10900;SDS011;5503;53.208;10.392;2023-05-07T04:54:45;7.22;;;3.85;;
10900;SDS011;5503;53.208;10.392;2023-05-07T04:57:12;5.45;;;3.33;;
10900;SDS011;5503;53.208;10.392;2023-05-07T04:59:39;6.00;;;3.53;;
10900;SDS011;5503;53.208;10.392;2023-05-07T05:02:06;7.53;;;3.75;;
10900;SDS011;5503;53.208;10.392;2023-05-07T05:04:33;6.05;;;3.58;;
10900;SDS011;5503;53.208;10.392;2023-05-07T05:07:03;6.45;;;3.70;;
10900;SDS011;5503;53.208;10.392;2023-05-07T05:09:30;5.82;;;3.05;;
10900;SDS011;5503;53.208;10.392;2023-05-07T05:11:57;8.00;;;3.17;;
10900;SDS011;5503;53.208;10.392;2023-05-07T05:14:24;8.52;;;4.05;;
10900;SDS011;5503;53.208;10.392;2023-05-07T05:16:51;7.43;;;3.58;;
10900;SDS011;5503;53.208;10.392;2023-05-07T05:19:18;4.68;;;2.80;;
10900;SDS011;5503;53.208;10.392;2023-05-07T05:21:46;6.90;;;3.58;;
10900;SDS011;5503;53.208;10.392;2023-05-07T05:24:14;5.97;;;3.45;;
10900;SDS011;5503;53.208;10.392;2023-05-07T05:26:41;7.63;;;4.10;;
10900;SDS011;5503;53.208;10.392;2023-05-07T05:29:08;6.63;;;3.78;;
10900;SDS011;5503;53.208;10.392;2023-05-07T05:31:36;8.60;;;3.35;;
10900;SDS011;5503;53.208;10.392;2023-05-07T05:34:03;6.90;;;3.78;;
10900;SDS011;5503;53.208;10.392;2023-05-07T05:36:30;6.50;;;4.10;;
10900;SDS011;5503;53.208;10.392;2023-05-07T05:38:57;6.68;;;3.78;;
10900;SDS011;5503;53.208;10.392;2023-05-07T05:41:26;7.32;;;3.72;;
10900;SDS011;5503;53.208;10.392;2023-05-07T05:43:53;5.43;;;3.35;;
10900;SDS011;5503;53.208;10.392;2023-05-07T05:46:21;7.97;;;3.28;;
10900;SDS011;5503;53.208;10.392;2023-05-07T05:48:48;7.10;;;2.90;;
10900;SDS011;5503;53.208;10.392;2023-05-07T05:51:15;6.18;;;3.63;;
10900;SDS011;5503;53.208;10.392;2023-05-07T05:53:42;6.40;;;3.47;;
10900;SDS011;5503;53.208;10.392;2023-05-07T05:56:09;8.77;;;3.78;;
10900;SDS011;5503;53.208;10.392;2023-05-07T05:58:38;5.53;;;3.78;;
10900;SDS011;5503;53.208;10.392;2023-05-07T06:01:05;5.97;;;3.67;;
10900;SDS011;5503;53.208;10.392;2023-05-07T06:03:32;8.63;;;3.35;;
10900;SDS011;5503;53.208;10.392;2023-05-07T06:06:00;7.60;;;3.85;;
10900;SDS011;5503;53.208;10.392;2023-05-07T06:08:28;7.85;;;3.53;;
10900;SDS011;5503;53.208;10.392;2023-05-07T06:10:56;6.43;;;3.97;;
10900;SDS011;5503;53.208;10.392;2023-05-07T06:13:23;7.00;;;3.63;;
10900;SDS011;5503;53.208;10.392;2023-05-07T06:15:52;7.13;;;3.42;;
10900;SDS011;5503;53.208;10.392;2023-05-07T06:18:19;7.72;;;4.00;;
10900;SDS011;5503;53.208;10.392;2023-05-07T06:20:46;4.97;;;2.78;;
10900;SDS011;5503;53.208;10.392;2023-05-07T06:23:13;6.57;;;3.35;;
10900;SDS011;5503;53.208;10.392;2023-05-07T06:25:41;6.25;;;3.13;;
10900;SDS011;5503;53.208;10.392;2023-05-07T06:28:08;7.68;;;3.95;;
10900;SDS011;5503;53.208;10.392;2023-05-07T06:30:36;5.82;;;2.70;;
10900;SDS011;5503;53.208;10.392;2023-05-07T06:33:04;5.68;;;2.88;;
10900;SDS011;5503;53.208;10.392;2023-05-07T06:35:32;4.65;;;2.70;;
10900;SDS011;5503;53.208;10.392;2023-05-07T06:37:59;7.78;;;3.35;;
10900;SDS011;5503;53.208;10.392;2023-05-07T06:40:26;7.80;;;3.97;;
10900;SDS011;5503;53.208;10.392;2023-05-07T06:42:53;6.85;;;3.03;;
10900;SDS011;5503;53.208;10.392;2023-05-07T06:45:20;5.93;;;3.45;;
10900;SDS011;5503;53.208;10.392;2023-05-07T06:47:48;6.50;;;3.40;;
10900;SDS011;5503;53.208;10.392;2023-05-07T06:50:17;10.23;;;2.47;;
10900;SDS011;5503;53.208;10.392;2023-05-07T06:52:44;6.03;;;3.45;;
10900;SDS011;5503;53.208;10.392;2023-05-07T06:55:11;10.27;;;6.55;;
10900;SDS011;5503;53.208;10.392;2023-05-07T06:57:39;8.35;;;3.60;;
10900;SDS011;5503;53.208;10.392;2023-05-07T07:00:06;6.55;;;3.22;;
10900;SDS011;5503;53.208;10.392;2023-05-07T07:02:35;5.57;;;3.17;;
10900;SDS011;5503;53.208;10.392;2023-05-07T07:05:02;9.50;;;3.67;;
10900;SDS011;5503;53.208;10.392;2023-05-07T07:07:30;6.47;;;3.67;;
10900;SDS011;5503;53.208;10.392;2023-05-07T07:09:57;5.35;;;2.58;;
10900;SDS011;5503;53.208;10.392;2023-05-07T07:12:25;4.93;;;2.78;;
10900;SDS011;5503;53.208;10.392;2023-05-07T07:14:53;6.07;;;3.27;;
10900;SDS011;5503;53.208;10.392;2023-05-07T07:17:21;4.90;;;2.70;;
10900;SDS011;5503;53.208;10.392;2023-05-07T07:19:48;5.00;;;2.65;;
10900;SDS011;5503;53.208;10.392;2023-05-07T07:22:15;6.85;;;2.70;;
10900;SDS011;5503;53.208;10.392;2023-05-07T07:24:43;5.65;;;2.40;;
10900;SDS011;5503;53.208;10.392;2023-05-07T07:27:11;4.77;;;2.23;;
10900;SDS011;5503;53.208;10.392;2023-05-07T07:29:38;7.88;;;3.50;;
10900;SDS011;5503;53.208;10.392;2023-05-07T07:32:05;5.88;;;2.92;;
10900;SDS011;5503;53.208;10.392;2023-05-07T07:34:32;5.43;;;3.20;;
10900;SDS011;5503;53.208;10.392;2023-05-07T07:36:59;13.73;;;3.28;;
10900;SDS011;5503;53.208;10.392;2023-05-07T07:39:30;5.70;;;2.73;;
10900;SDS011;5503;53.208;10.392;2023-05-07T07:41:58;4.80;;;2.67;;
10900;SDS011;5503;53.208;10.392;2023-05-07T07:44:26;5.47;;;2.55;;
10900;SDS011;5503;53.208;10.392;2023-05-07T07:46:54;5.25;;;2.72;;
10900;SDS011;5503;53.208;10.392;2023-05-07T07:49:21;4.78;;;2.30;;
10900;SDS011;5503;53.208;10.392;2023-05-07T07:51:48;6.80;;;3.50;;
10900;SDS011;5503;53.208;10.392;2023-05-07T07:54:16;5.22;;;2.72;;
10900;SDS011;5503;53.208;10.392;2023-05-07T07:56:43;4.20;;;2.15;;
10900;SDS011;5503;53.208;10.392;2023-05-07T07:59:11;5.63;;;2.90;;
10900;SDS011;5503;53.208;10.392;2023-05-07T08:01:42;4.93;;;3.00;;
10900;SDS011;5503;53.208;10.392;2023-05-07T08:04:09;6.87;;;2.97;;
10900;SDS011;5503;53.208;10.392;2023-05-07T08:06:37;4.60;;;2.53;;
10900;SDS011;5503;53.208;10.392;2023-05-07T08:09:04;5.57;;;2.78;;
10900;SDS011;5503;53.208;10.392;2023-05-07T08:11:31;5.32;;;3.00;;
10900;SDS011;5503;53.208;10.392;2023-05-07T08:13:58;8.30;;;2.58;;
10900;SDS011;5503;53.208;10.392;2023-05-07T08:16:27;5.40;;;3.10;;
10900;SDS011;5503;53.208;10.392;2023-05-07T08:18:54;6.65;;;3.50;;
10900;SDS011;5503;53.208;10.392;2023-05-07T08:21:21;5.05;;;2.50;;
10900;SDS011;5503;53.208;10.392;2023-05-07T08:23:48;6.03;;;2.70;;
10900;SDS011;5503;53.208;10.392;2023-05-07T08:26:15;5.50;;;3.17;;
10900;SDS011;5503;53.208;10.392;2023-05-07T08:28:43;6.60;;;3.43;;
10900;SDS011;5503;53.208;10.392;2023-05-07T08:31:10;5.40;;;2.88;;
10900;SDS011;5503;53.208;10.392;2023-05-07T08:33:38;5.57;;;2.83;;
10900;SDS011;5503;53.208;10.392;2023-05-07T08:36:06;5.05;;;2.33;;
10900;SDS011;5503;53.208;10.392;2023-05-07T08:38:33;6.60;;;3.10;;
10900;SDS011;5503;53.208;10.392;2023-05-07T08:41:00;5.63;;;3.20;;
10900;SDS011;5503;53.208;10.392;2023-05-07T08:43:27;5.65;;;2.75;;
10900;SDS011;5503;53.208;10.392;2023-05-07T08:45:55;6.57;;;3.20;;
10900;SDS011;5503;53.208;10.392;2023-05-07T08:48:25;5.85;;;2.83;;
10900;SDS011;5503;53.208;10.392;2023-05-07T08:50:53;5.20;;;2.60;;
10900;SDS011;5503;53.208;10.392;2023-05-07T08:53:20;6.33;;;3.10;;
10900;SDS011;5503;53.208;10.392;2023-05-07T08:55:48;5.65;;;3.25;;
10900;SDS011;5503;53.208;10.392;2023-05-07T08:58:15;6.32;;;3.50;;
10900;SDS011;5503;53.208;10.392;2023-05-07T09:00:45;5.35;;;2.95;;
10900;SDS011;5503;53.208;10.392;2023-05-07T09:03:13;5.68;;;3.17;;
10900;SDS011;5503;53.208;10.392;2023-05-07T09:05:41;5.53;;;3.07;;
10900;SDS011;5503;53.208;10.392;2023-05-07T09:08:10;7.40;;;3.85;;
10900;SDS011;5503;53.208;10.392;2023-05-07T09:10:41;5.28;;;2.85;;
10900;SDS011;5503;53.208;10.392;2023-05-07T09:13:08;8.48;;;3.88;;
10900;SDS011;5503;53.208;10.392;2023-05-07T09:15:38;5.97;;;3.35;;
10900;SDS011;5503;53.208;10.392;2023-05-07T09:18:05;6.40;;;2.80;;
10900;SDS011;5503;53.208;10.392;2023-05-07T09:20:32;6.43;;;3.30;;
10900;SDS011;5503;53.208;10.392;2023-05-07T09:22:59;6.50;;;3.17;;
10900;SDS011;5503;53.208;10.392;2023-05-07T09:25:31;6.00;;;3.40;;
10900;SDS011;5503;53.208;10.392;2023-05-07T09:27:59;6.22;;;3.42;;
10900;SDS011;5503;53.208;10.392;2023-05-07T09:30:27;7.13;;;3.07;;
10900;SDS011;5503;53.208;10.392;2023-05-07T09:32:55;7.97;;;4.25;;
10900;SDS011;5503;53.208;10.392;2023-05-07T09:35:23;4.80;;;2.58;;
10900;SDS011;5503;53.208;10.392;2023-05-07T09:37:52;6.95;;;3.40;;
10900;SDS011;5503;53.208;10.392;2023-05-07T09:40:20;6.03;;;2.90;;
10900;SDS011;5503;53.208;10.392;2023-05-07T09:42:49;6.07;;;2.63;;
10900;SDS011;5503;53.208;10.392;2023-05-07T09:45:21;5.78;;;3.55;;
10900;SDS011;5503;53.208;10.392;2023-05-07T09:47:48;8.52;;;3.75;;
10900;SDS011;5503;53.208;10.392;2023-05-07T09:50:16;9.30;;;3.58;;
10900;SDS011;5503;53.208;10.392;2023-05-07T09:52:44;5.80;;;3.30;;
10900;SDS011;5503;53.208;10.392;2023-05-07T09:55:12;5.97;;;3.47;;
10900;SDS011;5503;53.208;10.392;2023-05-07T09:57:39;5.78;;;3.38;;
10900;SDS011;5503;53.208;10.392;2023-05-07T10:00:09;6.70;;;3.10;;
10900;SDS011;5503;53.208;10.392;2023-05-07T10:02:37;5.80;;;3.47;;
10900;SDS011;5503;53.208;10.392;2023-05-07T10:05:11;5.63;;;3.13;;
10900;SDS011;5503;53.208;10.392;2023-05-07T10:07:39;5.87;;;3.43;;
10900;SDS011;5503;53.208;10.392;2023-05-07T10:10:07;6.10;;;3.00;;
10900;SDS011;5503;53.208;10.392;2023-05-07T10:12:34;5.55;;;3.15;;
10900;SDS011;5503;53.208;10.392;2023-05-07T10:15:05;11.50;;;3.47;;
10900;SDS011;5503;53.208;10.392;2023-05-07T10:17:34;7.07;;;3.17;;
10900;SDS011;5503;53.208;10.392;2023-05-07T10:20:02;6.47;;;2.83;;
10900;SDS011;5503;53.208;10.392;2023-05-07T10:22:30;7.90;;;3.83;;
10900;SDS011;5503;53.208;10.392;2023-05-07T10:24:59;7.85;;;4.10;;
10900;SDS011;5503;53.208;10.392;2023-05-07T10:27:29;5.30;;;3.00;;
10900;SDS011;5503;53.208;10.392;2023-05-07T10:29:59;6.13;;;3.30;;
10900;SDS011;5503;53.208;10.392;2023-05-07T10:32:30;5.73;;;3.27;;
10900;SDS011;5503;53.208;10.392;2023-05-07T10:35:02;5.90;;;2.97;;
10900;SDS011;5503;53.208;10.392;2023-05-07T10:37:30;6.15;;;2.97;;
10900;SDS011;5503;53.208;10.392;2023-05-07T10:39:57;4.95;;;2.80;;
10900;SDS011;5503;53.208;10.392;2023-05-07T10:42:24;5.95;;;3.30;;
10900;SDS011;5503;53.208;10.392;2023-05-07T10:44:52;4.77;;;2.63;;
10900;SDS011;5503;53.208;10.392;2023-05-07T10:47:19;5.47;;;2.53;;
10900;SDS011;5503;53.208;10.392;2023-05-07T10:52:33;4.28;;;2.42;;
10900;SDS011;5503;53.208;10.392;2023-05-07T10:57:43;5.57;;;2.87;;
10900;SDS011;5503;53.208;10.392;2023-05-07T11:03:05;5.57;;;2.88;;
10900;SDS011;5503;53.208;10.392;2023-05-07T11:05:33;5.32;;;2.90;;
10900;SDS011;5503;53.208;10.392;2023-05-07T11:08:02;5.47;;;2.80;;
10900;SDS011;5503;53.208;10.392;2023-05-07T11:16:03;6.18;;;2.40;;
10900;SDS011;5503;53.208;10.392;2023-05-07T11:18:45;7.57;;;3.20;;
10900;SDS011;5503;53.208;10.392;2023-05-07T11:21:13;4.43;;;2.42;;
10900;SDS011;5503;53.208;10.392;2023-05-07T11:23:59;5.00;;;2.73;;
10900;SDS011;5503;53.208;10.392;2023-05-07T11:26:27;4.80;;;2.60;;
10900;SDS011;5503;53.208;10.392;2023-05-07T11:28:55;6.05;;;2.80;;
10900;SDS011;5503;53.208;10.392;2023-05-07T11:31:23;4.68;;;2.08;;
10900;SDS011;5503;53.208;10.392;2023-05-07T11:33:51;5.05;;;2.83;;
10900;SDS011;5503;53.208;10.392;2023-05-07T11:36:18;4.37;;;2.50;;
10900;SDS011;5503;53.208;10.392;2023-05-07T11:38:46;4.97;;;2.60;;
10900;SDS011;5503;53.208;10.392;2023-05-07T11:41:15;5.20;;;2.63;;
10900;SDS011;5503;53.208;10.392;2023-05-07T11:43:57;6.15;;;3.20;;
10900;SDS011;5503;53.208;10.392;2023-05-07T11:46:27;5.38;;;2.95;;
10900;SDS011;5503;53.208;10.392;2023-05-07T11:48:54;5.37;;;2.70;;
10900;SDS011;5503;53.208;10.392;2023-05-07T11:51:22;5.28;;;2.80;;
10900;SDS011;5503;53.208;10.392;2023-05-07T11:53:51;4.47;;;2.20;;
10900;SDS011;5503;53.208;10.392;2023-05-07T11:56:20;5.00;;;2.00;;
10900;SDS011;5503;53.208;10.392;2023-05-07T11:58:47;6.32;;;3.10;;
10900;SDS011;5503;53.208;10.392;2023-05-07T12:01:16;4.70;;;2.80;;
10900;SDS011;5503;53.208;10.392;2023-05-07T12:03:44;4.68;;;2.00;;
10900;SDS011;5503;53.208;10.392;2023-05-07T12:06:11;4.28;;;2.60;;
10900;SDS011;5503;53.208;10.392;2023-05-07T12:08:39;6.13;;;2.92;;
10900;SDS011;5503;53.208;10.392;2023-05-07T12:11:07;5.47;;;3.05;;
10900;SDS011;5503;53.208;10.392;2023-05-07T12:13:37;5.60;;;3.40;;
10900;SDS011;5503;53.208;10.392;2023-05-07T12:16:05;5.05;;;2.92;;
10900;SDS011;5503;53.208;10.392;2023-05-07T12:18:33;4.50;;;2.30;;
10900;SDS011;5503;53.208;10.392;2023-05-07T12:21:01;5.05;;;2.47;;
10900;SDS011;5503;53.208;10.392;2023-05-07T12:23:28;5.13;;;2.75;;
10900;SDS011;5503;53.208;10.392;2023-05-07T12:25:56;4.93;;;2.23;;
10900;SDS011;5503;53.208;10.392;2023-05-07T12:28:23;5.03;;;2.50;;
10900;SDS011;5503;53.208;10.392;2023-05-07T12:30:51;4.20;;;2.10;;
10900;SDS011;5503;53.208;10.392;2023-05-07T12:33:23;4.53;;;2.15;;
10900;SDS011;5503;53.208;10.392;2023-05-07T12:35:50;5.05;;;2.47;;
10900;SDS011;5503;53.208;10.392;2023-05-07T12:38:17;5.30;;;2.50;;
10900;SDS011;5503;53.208;10.392;2023-05-07T12:40:45;4.43;;;1.80;;
10900;SDS011;5503;53.208;10.392;2023-05-07T12:43:16;4.68;;;2.22;;
10900;SDS011;5503;53.208;10.392;2023-05-07T12:45:44;4.97;;;2.38;;
10900;SDS011;5503;53.208;10.392;2023-05-07T12:48:13;5.88;;;2.58;;
10900;SDS011;5503;53.208;10.392;2023-05-07T12:50:40;3.93;;;1.93;;
10900;SDS011;5503;53.208;10.392;2023-05-07T12:53:08;4.60;;;2.30;;
10900;SDS011;5503;53.208;10.392;2023-05-07T12:55:42;5.57;;;2.30;;
10900;SDS011;5503;53.208;10.392;2023-05-07T12:58:19;4.32;;;2.17;;
10900;SDS011;5503;53.208;10.392;2023-05-07T13:00:47;4.20;;;2.20;;
10900;SDS011;5503;53.208;10.392;2023-05-07T13:03:22;4.93;;;2.00;;
10900;SDS011;5503;53.208;10.392;2023-05-07T13:05:50;4.82;;;2.45;;
10900;SDS011;5503;53.208;10.392;2023-05-07T13:08:24;4.13;;;1.42;;
10900;SDS011;5503;53.208;10.392;2023-05-07T13:10:51;4.50;;;1.80;;
10900;SDS011;5503;53.208;10.392;2023-05-07T13:13:19;4.72;;;2.20;;
10900;SDS011;5503;53.208;10.392;2023-05-07T13:15:46;4.50;;;2.10;;
10900;SDS011;5503;53.208;10.392;2023-05-07T13:18:13;3.50;;;1.40;;
10900;SDS011;5503;53.208;10.392;2023-05-07T13:20:42;4.65;;;1.60;;
10900;SDS011;5503;53.208;10.392;2023-05-07T13:23:09;3.83;;;1.92;;
10900;SDS011;5503;53.208;10.392;2023-05-07T13:25:36;4.65;;;1.80;;
10900;SDS011;5503;53.208;10.392;2023-05-07T13:28:03;5.23;;;2.00;;
10900;SDS011;5503;53.208;10.392;2023-05-07T13:30:31;4.47;;;1.77;;
10900;SDS011;5503;53.208;10.392;2023-05-07T13:32:58;6.22;;;2.33;;
10900;SDS011;5503;53.208;10.392;2023-05-07T13:35:25;4.57;;;1.95;;
10900;SDS011;5503;53.208;10.392;2023-05-07T13:37:54;3.45;;;1.55;;
10900;SDS011;5503;53.208;10.392;2023-05-07T13:40:21;5.67;;;1.90;;
10900;SDS011;5503;53.208;10.392;2023-05-07T13:42:48;4.22;;;1.80;;
10900;SDS011;5503;53.208;10.392;2023-05-07T13:45:16;4.32;;;1.92;;
10900;SDS011;5503;53.208;10.392;2023-05-07T13:47:43;3.97;;;1.63;;
10900;SDS011;5503;53.208;10.392;2023-05-07T13:50:10;3.80;;;1.77;;
10900;SDS011;5503;53.208;10.392;2023-05-07T13:52:40;4.10;;;2.10;;
10900;SDS011;5503;53.208;10.392;2023-05-07T13:55:09;6.07;;;1.60;;
10900;SDS011;5503;53.208;10.392;2023-05-07T13:57:37;4.10;;;1.88;;
10900;SDS011;5503;53.208;10.392;2023-05-07T14:00:05;4.13;;;1.80;;
10900;SDS011;5503;53.208;10.392;2023-05-07T14:02:32;3.28;;;1.38;;
10900;SDS011;5503;53.208;10.392;2023-05-07T14:04:59;3.33;;;1.50;;
10900;SDS011;5503;53.208;10.392;2023-05-07T14:07:26;5.72;;;2.17;;
10900;SDS011;5503;53.208;10.392;2023-05-07T14:09:54;4.50;;;2.20;;
10900;SDS011;5503;53.208;10.392;2023-05-07T14:12:23;3.60;;;1.70;;
10900;SDS011;5503;53.208;10.392;2023-05-07T14:14:50;4.35;;;1.70;;
10900;SDS011;5503;53.208;10.392;2023-05-07T14:17:17;4.37;;;2.10;;
10900;SDS011;5503;53.208;10.392;2023-05-07T14:19:45;4.43;;;2.08;;
10900;SDS011;5503;53.208;10.392;2023-05-07T14:22:13;3.50;;;1.58;;
10900;SDS011;5503;53.208;10.392;2023-05-07T14:24:40;2.92;;;1.02;;
10900;SDS011;5503;53.208;10.392;2023-05-07T14:27:07;3.60;;;1.50;;
10900;SDS011;5503;53.208;10.392;2023-05-07T14:29:36;4.13;;;1.93;;
10900;SDS011;5503;53.208;10.392;2023-05-07T14:32:03;4.07;;;1.80;;
10900;SDS011;5503;53.208;10.392;2023-05-07T14:34:31;3.75;;;1.38;;
10900;SDS011;5503;53.208;10.392;2023-05-07T14:36:59;3.88;;;1.58;;
10900;SDS011;5503;53.208;10.392;2023-05-07T14:39:26;3.42;;;1.40;;
10900;SDS011;5503;53.208;10.392;2023-05-07T14:41:53;3.90;;;1.70;;
10900;SDS011;5503;53.208;10.392;2023-05-07T14:44:21;3.47;;;1.45;;
10900;SDS011;5503;53.208;10.392;2023-05-07T14:46:49;4.63;;;1.80;;
10900;SDS011;5503;53.208;10.392;2023-05-07T14:49:16;3.15;;;1.23;;
10900;SDS011;5503;53.208;10.392;2023-05-07T14:51:44;4.40;;;1.90;;
10900;SDS011;5503;53.208;10.392;2023-05-07T14:54:11;3.83;;;1.70;;
10900;SDS011;5503;53.208;10.392;2023-05-07T14:56:38;4.35;;;1.60;;
10900;SDS011;5503;53.208;10.392;2023-05-07T14:59:06;4.30;;;1.77;;
10900;SDS011;5503;53.208;10.392;2023-05-07T15:01:34;5.68;;;2.20;;
10900;SDS011;5503;53.208;10.392;2023-05-07T15:04:03;4.18;;;1.75;;
10900;SDS011;5503;53.208;10.392;2023-05-07T15:06:31;4.00;;;1.77;;